Larkspur, CO

2:43 PM MDT on April 27, 2015 (GMT -0600)
Bernhardt's Barnyard, Spruce Mtn Rd. | | Change Station
CLOSE
Current Station
Personal Weather Station
Location: Larkspur, CO
Elevation: 6776 ft
Nearby Weather Stations

Elev 6776 ft 39.21 °N, 104.88 °W | Updated 3 minutes ago

Overcast
Overcast
37.4 °F
Feels Like 31 °F
N
9.2
Wind Variable Wind from North
Gusts 13.0 mph

Today
High -- | Low -- °F
--% Chance of Precip.
Yesterday
High -- | Low -- °F
Precip. -- in
6:06 AM 7:48 PM
Waxing Gibbous, 67% visible
Pressure 30.27 in
Visibility 5.0 miles
Clouds Overcast 400 ft
Windchill 31 °F
Dew Point 37 °F
Humidity 99%
Rainfall 0.09 in
Snow Depth Not available.
UV 3 out of 12
Pollen 4.70 out of 12
Air Quality Not available.
Flu Activity Sporadic
METAR KMNH 272038Z AUTO 01009KT 5SM BR OVC004 02/02 A3027 RMK AO2

More Conditions Fewer Conditions

Pressure 30.27 in
Visibility 5.0 miles
Clouds Overcast 400 ft
Windchill 31 °F
Dew Point 37 °F
Humidity 99%
Rainfall 0.09 in
Snow Depth Not available.
UV 3 out of 12
Pollen 4.70 out of 12
Air Quality Not available.
Flu Activity Sporadic
METAR KMNH 272038Z AUTO 01009KT 5SM BR OVC004 02/02 A3027 RMK AO2

More Conditions Fewer Conditions

10-Day Weather Forecast

Almanac

Astronomy

Apr. 27, 2015 Rise Set
Actual Time
Civil Twilight
Nautical Twilight
Astronomical Twilight
Moon
Length of Visible Light
Length of Day
Tomorrow will be .
, % of the Moon is Illuminated

Today's Extremes

State Highs State Lows

Community

WunderPhotos

Upload Photos

1,817,421 photos uploaded!

WunderBlogs® & News

Nearby

Air Quality

  Air Quality AQ Index Pollutant
Not available.

Snow Depth

Station Depth Elevation

Earthquake Activity

City Distance Mag. Time & Date
Minimum magnitude displayed is 2.5.

Coastal Water Temperatures

Place Temperature

Stations

Nearby Weather Stations

Station Location Temp. Windchill Dew Point Humidity Wind Precip. Elev Updated Type